createdAt,value
2022-09-29T00:01:13.406Z,2.30
2022-09-29T00:03:41.682Z,1.57
2022-09-29T00:06:14.752Z,3.00
2022-09-29T00:08:44.609Z,3.67
2022-09-29T00:11:14.140Z,1.70
2022-09-29T00:13:42.369Z,1.97
2022-09-29T00:16:11.591Z,1.03
2022-09-29T00:18:39.926Z,1.13
2022-09-29T00:21:12.033Z,1.77
2022-09-29T00:23:40.507Z,1.53
2022-09-29T00:26:12.534Z,2.40
2022-09-29T00:28:43.173Z,2.03
2022-09-29T00:31:13.083Z,4.60
2022-09-29T00:33:41.666Z,1.43
2022-09-29T00:36:12.627Z,2.73
2022-09-29T00:38:42.349Z,1.00
2022-09-29T00:41:17.976Z,0.90
2022-09-29T00:44:00.329Z,0.90
2022-09-29T00:46:34.647Z,1.50
2022-09-29T00:49:06.669Z,0.90
2022-09-29T00:51:36.787Z,0.80
2022-09-29T00:54:05.387Z,0.90
2022-09-29T00:56:35.723Z,0.70
2022-09-29T00:59:09.516Z,1.53
2022-09-29T01:01:37.913Z,2.20
2022-09-29T01:04:08.630Z,0.90
2022-09-29T01:06:40.351Z,1.87
2022-09-29T01:09:10.684Z,6.10
2022-09-29T01:11:40.203Z,0.90
2022-09-29T01:14:10.186Z,4.33
2022-09-29T01:16:41.540Z,1.93
2022-09-29T01:19:13.376Z,1.17
2022-09-29T01:21:51.150Z,3.43
2022-09-29T01:24:58.307Z,1.27
2022-09-29T01:27:41.689Z,1.37
2022-09-29T01:30:15.858Z,0.90
2022-09-29T01:33:06.492Z,0.80
2022-09-29T01:35:40.393Z,1.37
2022-09-29T01:38:18.010Z,0.90
2022-09-29T01:40:50.899Z,1.60
2022-09-29T01:43:21.643Z,4.93
2022-09-29T01:45:52.726Z,0.93
2022-09-29T01:48:26.758Z,4.60
2022-09-29T01:50:58.203Z,1.00
2022-09-29T01:53:29.428Z,0.80
2022-09-29T01:56:02.715Z,0.80
2022-09-29T01:58:35.088Z,0.90
2022-09-29T02:01:07.559Z,1.10
2022-09-29T02:03:40.147Z,1.77
2022-09-29T02:06:12.516Z,0.97
2022-09-29T02:08:44.431Z,1.37
2022-09-29T02:11:14.601Z,0.90
2022-09-29T02:13:45.468Z,0.93
2022-09-29T02:16:16.706Z,0.90
2022-09-29T02:18:50.179Z,4.50
2022-09-29T02:21:18.824Z,0.80
2022-09-29T02:23:47.163Z,1.10
2022-09-29T02:26:15.837Z,1.00
2022-09-29T02:28:44.611Z,0.90
2022-09-29T02:31:13.343Z,0.80
2022-09-29T02:33:41.505Z,3.27
2022-09-29T02:36:20.182Z,1.23
2022-09-29T02:38:54.930Z,1.10
2022-09-29T02:41:32.346Z,1.20
2022-09-29T02:44:38.913Z,1.10
2022-09-29T02:47:17.948Z,1.00
2022-09-29T02:50:01.837Z,1.33
2022-09-29T02:52:36.214Z,0.87
2022-09-29T02:55:11.253Z,0.97
2022-09-29T02:57:45.516Z,2.50
2022-09-29T03:00:16.426Z,1.83
2022-09-29T03:02:45.579Z,5.53
2022-09-29T03:05:15.681Z,2.67
2022-09-29T03:07:45.472Z,1.37
2022-09-29T03:10:14.663Z,0.97
2022-09-29T03:12:43.076Z,0.87
2022-09-29T03:15:12.922Z,3.43
2022-09-29T03:17:41.552Z,0.80
2022-09-29T03:20:11.185Z,0.90
2022-09-29T03:22:39.565Z,0.90
2022-09-29T03:25:09.956Z,0.70
2022-09-29T03:27:38.533Z,0.90
2022-09-29T03:30:07.715Z,0.70
2022-09-29T03:32:35.820Z,1.00
2022-09-29T03:35:04.214Z,5.37
2022-09-29T03:37:32.966Z,1.43
2022-09-29T03:40:01.504Z,1.00
2022-09-29T03:42:31.475Z,0.80
2022-09-29T03:45:00.338Z,0.80
2022-09-29T03:47:28.347Z,0.80
2022-09-29T03:49:57.247Z,2.40
2022-09-29T03:52:25.306Z,0.80
2022-09-29T03:54:53.868Z,1.37
2022-09-29T03:57:22.126Z,0.90
2022-09-29T03:59:53.304Z,1.53
2022-09-29T04:02:22.494Z,1.43
2022-09-29T04:04:50.961Z,1.00
2022-09-29T04:07:19.020Z,0.73
2022-09-29T04:09:47.073Z,0.70
2022-09-29T04:12:15.074Z,1.40
2022-09-29T04:14:43.093Z,1.83
2022-09-29T04:17:13.040Z,1.00
2022-09-29T04:19:41.051Z,1.30
2022-09-29T04:22:09.433Z,0.80
2022-09-29T04:24:37.423Z,1.23
2022-09-29T04:27:05.660Z,6.80
2022-09-29T04:29:33.709Z,1.47
2022-09-29T04:32:02.104Z,11.60
2022-09-29T04:34:31.498Z,1.20
2022-09-29T04:36:59.707Z,0.70
2022-09-29T04:39:27.926Z,2.40
2022-09-29T04:41:55.903Z,1.07
2022-09-29T04:44:24.994Z,1.80
2022-09-29T04:46:53.439Z,1.20
2022-09-29T04:49:21.663Z,0.90
2022-09-29T04:51:51.165Z,0.90
2022-09-29T04:54:19.112Z,1.67
2022-09-29T04:56:49.694Z,1.33
2022-09-29T04:59:18.428Z,5.00
2022-09-29T05:05:33.527Z,1.00
2022-09-29T05:08:04.480Z,2.33
2022-09-29T05:10:32.804Z,1.20
2022-09-29T05:13:00.800Z,1.20
2022-09-29T05:15:28.964Z,3.17
2022-09-29T05:17:57.004Z,1.93
2022-09-29T05:20:25.031Z,1.20
2022-09-29T05:22:53.149Z,1.90
2022-09-29T05:25:22.539Z,1.63
2022-09-29T05:27:50.541Z,1.17
2022-09-29T05:30:18.747Z,0.80
2022-09-29T05:32:47.243Z,2.37
2022-09-29T05:35:20.288Z,1.00
2022-09-29T05:37:48.311Z,19.20
2022-09-29T05:40:16.436Z,14.60
2022-09-29T05:42:46.330Z,8.10
2022-09-29T05:45:14.474Z,3.47
2022-09-29T05:47:44.090Z,4.20
2022-09-29T05:50:12.458Z,2.43
2022-09-29T05:52:40.641Z,1.73
2022-09-29T05:55:11.082Z,2.47
2022-09-29T05:57:39.260Z,3.03
2022-09-29T06:00:09.895Z,2.90
2022-09-29T06:02:38.013Z,2.83
2022-09-29T06:05:06.481Z,2.13
2022-09-29T06:07:34.578Z,3.20
2022-09-29T06:10:02.709Z,2.60
2022-09-29T06:12:35.515Z,1.77
2022-09-29T06:15:04.130Z,2.27
2022-09-29T06:17:34.578Z,5.77
2022-09-29T06:20:03.157Z,2.30
2022-09-29T06:22:31.285Z,4.17
2022-09-29T06:24:59.300Z,3.40
2022-09-29T06:27:27.333Z,2.23
2022-09-29T06:29:55.594Z,2.00
2022-09-29T06:32:24.033Z,1.83
2022-09-29T06:35:10.977Z,1.57
2022-09-29T06:37:39.705Z,2.50
2022-09-29T06:40:11.279Z,1.63
2022-09-29T06:42:39.688Z,2.10
2022-09-29T06:45:09.218Z,3.77
2022-09-29T06:47:37.297Z,2.93
2022-09-29T06:50:21.555Z,2.27
2022-09-29T06:53:02.343Z,2.50
2022-09-29T06:55:32.391Z,2.73
2022-09-29T06:58:04.060Z,3.33
2022-09-29T07:00:33.012Z,1.10
2022-09-29T07:03:01.060Z,1.50
2022-09-29T07:05:31.607Z,4.67
2022-09-29T07:08:01.294Z,2.40
2022-09-29T07:10:29.750Z,4.03
2022-09-29T07:12:57.877Z,1.00
2022-09-29T07:15:31.782Z,1.60
2022-09-29T07:18:01.159Z,1.00
2022-09-29T07:20:31.763Z,1.47
2022-09-29T07:22:59.955Z,1.93
2022-09-29T07:25:50.707Z,0.87
2022-09-29T07:28:16.101Z,1.20
2022-09-29T07:30:44.154Z,1.30
2022-09-29T07:33:12.329Z,1.20
2022-09-29T07:35:41.840Z,0.90
2022-09-29T07:38:09.932Z,1.20
2022-09-29T07:40:38.025Z,0.90
2022-09-29T07:43:07.677Z,1.10
2022-09-29T07:45:36.723Z,1.70
2022-09-29T07:48:05.074Z,1.07
2022-09-29T07:50:33.133Z,1.47
2022-09-29T07:53:02.579Z,3.20
2022-09-29T07:55:30.858Z,1.77
2022-09-29T07:57:58.884Z,1.40
2022-09-29T08:00:26.993Z,2.03
2022-09-29T08:02:55.041Z,6.43
2022-09-29T08:05:23.050Z,0.83
2022-09-29T08:07:53.119Z,1.33
2022-09-29T08:10:22.568Z,1.47
2022-09-29T08:12:50.789Z,1.03
2022-09-29T08:15:18.866Z,1.23
2022-09-29T08:17:46.953Z,7.40
2022-09-29T08:20:15.442Z,1.00
2022-09-29T08:22:43.485Z,1.50
2022-09-29T08:25:11.614Z,2.70
2022-09-29T08:27:52.163Z,2.60
2022-09-29T08:30:22.279Z,0.90
2022-09-29T08:32:52.865Z,1.30
2022-09-29T08:35:21.171Z,0.90
2022-09-29T08:37:49.188Z,0.90
2022-09-29T08:40:17.971Z,0.80
2022-09-29T08:42:55.874Z,1.13
2022-09-29T08:45:28.433Z,1.70
2022-09-29T08:48:05.077Z,2.70
2022-09-29T08:50:40.081Z,3.23
2022-09-29T08:53:21.240Z,2.17
2022-09-29T08:55:55.225Z,0.70
2022-09-29T08:58:25.086Z,2.40
2022-09-29T09:01:04.834Z,1.00
2022-09-29T09:04:00.601Z,1.97
2022-09-29T09:06:38.038Z,1.10
2022-09-29T09:09:16.808Z,1.33
2022-09-29T09:11:56.003Z,0.93
2022-09-29T09:14:38.121Z,0.80
2022-09-29T09:17:18.358Z,0.80
2022-09-29T09:20:05.694Z,1.77
2022-09-29T09:22:42.704Z,0.80
2022-09-29T09:25:21.580Z,0.90
2022-09-29T09:27:54.040Z,0.90
2022-09-29T09:30:24.797Z,0.80
2022-09-29T09:32:55.283Z,0.87
2022-09-29T09:35:32.482Z,0.90
2022-09-29T09:38:04.394Z,1.27
2022-09-29T09:40:39.827Z,0.80
2022-09-29T09:43:11.293Z,0.90
2022-09-29T09:45:44.391Z,0.80
2022-09-29T09:48:18.210Z,1.63
2022-09-29T09:50:49.455Z,1.20
2022-09-29T09:53:23.791Z,1.10
2022-09-29T09:55:58.118Z,1.10
2022-09-29T09:58:38.695Z,1.13
2022-09-29T10:01:10.621Z,1.00
2022-09-29T10:03:38.906Z,1.30
2022-09-29T10:06:08.141Z,1.40
2022-09-29T10:08:39.546Z,1.23
2022-09-29T10:11:22.603Z,1.07
2022-09-29T10:13:56.739Z,2.07
2022-09-29T10:16:31.912Z,1.47
2022-09-29T10:18:59.923Z,0.90
2022-09-29T10:21:40.019Z,1.13
2022-09-29T10:24:22.978Z,1.63
2022-09-29T10:26:53.411Z,1.27
2022-09-29T10:29:26.778Z,0.80
2022-09-29T10:32:04.572Z,3.43
2022-09-29T10:34:33.962Z,2.17
2022-09-29T10:37:03.399Z,2.40
2022-09-29T10:39:40.013Z,1.00
2022-09-29T10:42:25.886Z,1.17
2022-09-29T10:44:55.880Z,0.83
2022-09-29T10:47:25.417Z,1.30
2022-09-29T10:50:09.223Z,1.37
2022-09-29T10:52:38.088Z,1.50
2022-09-29T10:55:07.199Z,1.00
2022-09-29T10:57:37.378Z,3.80
2022-09-29T11:00:07.260Z,1.00
2022-09-29T11:02:38.715Z,1.30
2022-09-29T11:05:18.287Z,3.23
2022-09-29T11:07:47.081Z,1.50
2022-09-29T11:10:28.781Z,2.60
2022-09-29T11:13:00.892Z,1.20
2022-09-29T11:15:30.666Z,1.87
2022-09-29T11:18:00.202Z,1.57
2022-09-29T11:20:33.034Z,1.10
2022-09-29T11:23:10.302Z,1.23
2022-09-29T11:25:50.612Z,2.20
2022-09-29T11:28:29.780Z,1.23
2022-09-29T11:31:09.549Z,1.30
2022-09-29T11:33:46.944Z,1.67
2022-09-29T11:36:21.093Z,1.47
2022-09-29T11:38:55.591Z,1.70
2022-09-29T11:41:34.822Z,1.00
2022-09-29T11:44:11.435Z,2.20
2022-09-29T11:46:50.922Z,2.70
2022-09-29T11:49:44.743Z,1.43
2022-09-29T11:52:42.286Z,1.57
2022-09-29T11:55:27.119Z,6.50
2022-09-29T11:58:04.134Z,1.70
2022-09-29T12:00:43.772Z,1.40
2022-09-29T12:03:24.163Z,4.10
2022-09-29T12:06:03.141Z,1.27
2022-09-29T12:08:46.247Z,4.13
2022-09-29T12:11:42.032Z,3.50
2022-09-29T12:14:12.480Z,1.40
2022-09-29T12:16:46.342Z,1.10
2022-09-29T12:19:16.747Z,1.00
2022-09-29T12:21:50.663Z,1.50
2022-09-29T12:24:21.709Z,1.30
2022-09-29T12:26:51.070Z,1.30
2022-09-29T12:29:27.904Z,1.67
2022-09-29T12:31:57.522Z,1.70
2022-09-29T12:34:30.086Z,1.40
2022-09-29T12:37:03.753Z,2.70
2022-09-29T12:39:38.739Z,5.43
2022-09-29T12:42:24.195Z,1.00
2022-09-29T12:44:55.930Z,3.27
2022-09-29T12:47:30.032Z,1.47
2022-09-29T12:50:03.269Z,1.30
2022-09-29T12:52:39.024Z,1.70
2022-09-29T12:55:09.527Z,2.60
2022-09-29T12:57:40.879Z,2.43
2022-09-29T13:00:12.027Z,1.37
2022-09-29T13:02:56.028Z,1.57
2022-09-29T13:05:37.879Z,1.83
2022-09-29T13:08:29.692Z,4.37
2022-09-29T13:11:07.162Z,2.73
2022-09-29T13:14:03.959Z,1.50
2022-09-29T13:16:40.639Z,1.90
2022-09-29T13:19:52.441Z,2.20
2022-09-29T13:22:46.760Z,2.20
2022-09-29T13:25:23.924Z,1.67
2022-09-29T13:27:53.295Z,3.47
2022-09-29T13:30:22.717Z,2.60
2022-09-29T13:32:54.306Z,1.77
2022-09-29T13:35:24.910Z,2.37
2022-09-29T13:37:55.403Z,1.43
2022-09-29T13:40:26.958Z,2.00
2022-09-29T13:42:56.326Z,1.10
2022-09-29T13:45:47.407Z,4.30
2022-09-29T13:48:50.772Z,2.50
2022-09-29T13:51:29.742Z,3.40
2022-09-29T13:54:34.592Z,4.90
2022-09-29T13:57:08.313Z,2.07
2022-09-29T13:59:39.609Z,1.67
2022-09-29T14:02:21.392Z,3.90
2022-09-29T14:04:55.055Z,1.77
2022-09-29T14:07:42.084Z,1.63
2022-09-29T14:10:22.268Z,1.27
2022-09-29T14:12:59.236Z,2.37
2022-09-29T14:15:28.324Z,3.03
2022-09-29T14:17:58.672Z,2.23
2022-09-29T14:20:28.107Z,8.83
2022-09-29T14:23:08.243Z,3.40
2022-09-29T14:25:57.258Z,3.30
2022-09-29T14:28:42.000Z,2.90
2022-09-29T14:31:22.993Z,2.43
2022-09-29T14:33:53.286Z,3.53
2022-09-29T14:36:23.255Z,3.70
2022-09-29T14:39:14.341Z,3.30
2022-09-29T14:41:43.053Z,4.23
2022-09-29T14:44:14.632Z,4.00
2022-09-29T14:47:09.968Z,3.27
2022-09-29T14:50:05.488Z,6.00
2022-09-29T14:52:42.916Z,2.60
2022-09-29T14:55:18.650Z,2.77
2022-09-29T14:58:03.787Z,3.17
2022-09-29T15:00:47.283Z,1.83
2022-09-29T15:03:27.422Z,3.77
2022-09-29T15:06:06.477Z,2.20
2022-09-29T15:08:36.649Z,3.37
2022-09-29T15:11:07.729Z,2.70
2022-09-29T15:13:35.995Z,5.30
2022-09-29T15:16:06.881Z,3.20
2022-09-29T15:19:01.430Z,2.43
2022-09-29T15:21:38.018Z,3.30
2022-09-29T15:24:23.205Z,3.27
2022-09-29T15:26:51.300Z,3.20
2022-09-29T15:29:20.169Z,3.63
2022-09-29T15:31:51.012Z,5.53
2022-09-29T15:34:21.009Z,5.40
2022-09-29T15:36:52.442Z,9.77
2022-09-29T15:39:43.069Z,3.67
2022-09-29T15:42:15.414Z,4.03
2022-09-29T15:44:49.131Z,3.73
2022-09-29T15:47:24.959Z,5.23
2022-09-29T15:49:54.225Z,3.37
2022-09-29T15:52:23.545Z,3.33
2022-09-29T15:54:56.229Z,5.10
2022-09-29T15:57:49.753Z,3.60
2022-09-29T16:00:43.556Z,4.17
2022-09-29T16:03:16.854Z,4.40
2022-09-29T16:05:53.864Z,4.17
2022-09-29T16:08:23.347Z,3.20
2022-09-29T16:10:55.257Z,4.10
2022-09-29T16:13:25.842Z,9.10
2022-09-29T16:15:57.262Z,6.87
2022-09-29T16:18:30.017Z,7.40
2022-09-29T16:21:00.194Z,5.77
2022-09-29T16:23:30.573Z,5.27
2022-09-29T16:26:19.142Z,5.07
2022-09-29T16:29:18.798Z,7.60
2022-09-29T16:31:48.770Z,3.27
2022-09-29T16:34:28.897Z,4.20
2022-09-29T16:36:58.414Z,7.83
2022-09-29T16:39:28.310Z,4.63
2022-09-29T16:41:58.754Z,7.83
2022-09-29T16:44:31.026Z,5.10
2022-09-29T16:47:01.129Z,6.67
2022-09-29T16:49:32.346Z,11.20
2022-09-29T16:52:02.492Z,12.03
2022-09-29T16:54:33.667Z,11.57
2022-09-29T16:57:18.409Z,6.67
2022-09-29T16:59:46.858Z,6.70
2022-09-29T17:02:15.134Z,4.33
2022-09-29T17:04:44.672Z,7.50
2022-09-29T17:07:16.801Z,19.53
2022-09-29T17:09:49.041Z,28.70
2022-09-29T17:12:18.071Z,24.80
2022-09-29T17:14:48.594Z,130.50
2022-09-29T17:17:19.487Z,33.03
2022-09-29T17:19:49.081Z,8.93
2022-09-29T17:22:33.891Z,8.63
2022-09-29T17:25:02.386Z,5.93
2022-09-29T17:27:48.286Z,6.77
2022-09-29T17:30:18.855Z,6.10
2022-09-29T17:32:47.079Z,7.60
2022-09-29T17:35:19.818Z,13.93
2022-09-29T17:37:48.343Z,8.97
2022-09-29T17:40:22.332Z,5.33
2022-09-29T17:42:50.508Z,6.97
2022-09-29T17:45:20.016Z,8.70
2022-09-29T17:47:49.380Z,6.83
2022-09-29T17:50:25.736Z,7.67
2022-09-29T17:52:54.113Z,8.10
2022-09-29T17:55:23.401Z,4.73
2022-09-29T17:57:53.257Z,7.00
2022-09-29T18:00:23.207Z,9.50
2022-09-29T18:02:52.044Z,9.87
2022-09-29T18:05:23.505Z,8.00
2022-09-29T18:07:54.412Z,7.50
2022-09-29T18:10:27.161Z,8.80
2022-09-29T18:12:55.303Z,7.60
2022-09-29T18:15:24.356Z,9.83
2022-09-29T18:17:56.651Z,10.00
2022-09-29T18:20:25.143Z,7.60
2022-09-29T18:22:54.665Z,7.47
2022-09-29T18:25:22.692Z,6.30
2022-09-29T18:27:50.750Z,5.33
2022-09-29T18:30:20.417Z,6.60
2022-09-29T18:32:50.224Z,6.53
2022-09-29T18:35:19.784Z,7.80
2022-09-29T18:37:47.954Z,5.70
2022-09-29T18:40:18.018Z,11.83
2022-09-29T18:42:48.061Z,13.60
2022-09-29T18:45:23.245Z,7.10
2022-09-29T18:47:52.405Z,6.20
2022-09-29T18:50:23.010Z,6.90
2022-09-29T18:52:52.455Z,9.10
2022-09-29T18:55:24.385Z,10.90
2022-09-29T18:57:53.047Z,7.07
2022-09-29T19:00:22.924Z,7.53
2022-09-29T19:02:51.391Z,8.07
2022-09-29T19:05:21.373Z,7.30
2022-09-29T19:07:50.754Z,7.00
2022-09-29T19:10:19.077Z,11.20
2022-09-29T19:12:49.760Z,12.03
2022-09-29T19:15:19.450Z,49.70
2022-09-29T19:17:48.592Z,102.60
2022-09-29T19:20:18.860Z,180.63
2022-09-29T19:22:46.877Z,63.83
2022-09-29T19:25:17.264Z,45.17
2022-09-29T19:27:48.496Z,25.17
2022-09-29T19:30:18.607Z,50.80
2022-09-29T19:32:46.715Z,41.80
2022-09-29T19:35:20.998Z,38.37
2022-09-29T19:37:49.932Z,43.60
2022-09-29T19:40:21.682Z,35.90
2022-09-29T19:42:51.400Z,51.30
2022-09-29T19:45:19.860Z,52.27
2022-09-29T19:47:51.111Z,34.50
2022-09-29T19:50:36.443Z,24.73
2022-09-29T19:53:04.649Z,14.50
2022-09-29T19:55:32.871Z,12.27
2022-09-29T19:58:02.297Z,11.33
2022-09-29T20:00:30.694Z,13.23
2022-09-29T20:03:00.101Z,8.23
2022-09-29T20:05:28.434Z,10.00
2022-09-29T20:07:56.661Z,10.90
2022-09-29T20:10:28.604Z,12.13
2022-09-29T20:12:57.110Z,11.27
2022-09-29T20:15:26.870Z,11.87
2022-09-29T20:17:55.008Z,14.07
2022-09-29T20:20:23.918Z,14.50
2022-09-29T20:22:53.499Z,13.30
2022-09-29T20:25:22.220Z,14.03
2022-09-29T20:27:52.170Z,10.60
2022-09-29T20:30:21.824Z,14.00
2022-09-29T20:32:51.375Z,14.93
2022-09-29T20:35:19.437Z,13.80
2022-09-29T20:37:49.397Z,10.57
2022-09-29T20:40:17.841Z,9.50
2022-09-29T20:42:46.274Z,10.60
2022-09-29T20:45:16.353Z,14.07
2022-09-29T20:47:44.425Z,16.50
2022-09-29T20:50:14.634Z,12.87
2022-09-29T20:52:42.729Z,14.37
2022-09-29T20:55:12.111Z,11.53
2022-09-29T20:57:44.076Z,11.77
2022-09-29T21:00:14.545Z,9.30
2022-09-29T21:02:42.693Z,11.67
2022-09-29T21:05:10.730Z,10.67
2022-09-29T21:07:40.419Z,9.90
2022-09-29T21:10:10.043Z,10.93
2022-09-29T21:12:38.570Z,11.67
2022-09-29T21:15:07.384Z,11.50
2022-09-29T21:17:35.422Z,10.90
2022-09-29T21:20:22.014Z,13.43
2022-09-29T21:23:00.304Z,10.20
2022-09-29T21:25:49.372Z,10.77
2022-09-29T21:28:20.298Z,12.23
2022-09-29T21:30:48.409Z,12.83
2022-09-29T21:33:29.128Z,11.73
2022-09-29T21:36:00.939Z,10.80
2022-09-29T21:38:37.758Z,13.30
2022-09-29T21:41:21.715Z,12.20
2022-09-29T21:43:53.621Z,9.87
2022-09-29T21:46:29.102Z,11.73
2022-09-29T21:49:01.348Z,11.40
2022-09-29T21:51:37.896Z,18.60
2022-09-29T21:54:17.881Z,11.50
2022-09-29T21:56:52.189Z,15.80
2022-09-29T21:59:22.534Z,14.60
2022-09-29T22:01:53.612Z,13.17
2022-09-29T22:04:22.092Z,14.13
2022-09-29T22:06:50.163Z,13.10
2022-09-29T22:09:37.499Z,16.90
2022-09-29T22:12:32.124Z,10.87
2022-09-29T22:15:02.952Z,10.17
2022-09-29T22:17:36.464Z,11.80
2022-09-29T22:20:05.446Z,10.67
2022-09-29T22:22:59.517Z,10.80
2022-09-29T22:25:32.815Z,11.93
2022-09-29T22:28:09.766Z,10.37
2022-09-29T22:30:46.883Z,12.30
2022-09-29T22:33:18.019Z,11.60
2022-09-29T22:35:57.155Z,13.37
2022-09-29T22:38:25.312Z,9.83
2022-09-29T22:41:10.347Z,14.20
2022-09-29T22:43:50.261Z,12.83
2022-09-29T22:46:18.417Z,10.07
2022-09-29T22:48:54.699Z,11.67
2022-09-29T22:51:43.100Z,8.50
2022-09-29T22:54:11.217Z,10.37
2022-09-29T22:56:40.754Z,13.53
2022-09-29T22:59:18.563Z,9.10
2022-09-29T23:01:52.030Z,10.57
2022-09-29T23:04:43.087Z,9.83
2022-09-29T23:07:43.715Z,11.27
2022-09-29T23:10:38.016Z,8.73
2022-09-29T23:13:20.907Z,7.80
2022-09-29T23:15:51.938Z,9.53
2022-09-29T23:18:20.280Z,7.77
2022-09-29T23:21:17.842Z,10.20
2022-09-29T23:23:56.377Z,11.03
2022-09-29T23:26:47.763Z,7.60
2022-09-29T23:29:20.153Z,7.93
2022-09-29T23:31:54.618Z,11.00
2022-09-29T23:34:23.791Z,9.00
2022-09-29T23:37:09.182Z,8.80
2022-09-29T23:39:54.706Z,13.93
2022-09-29T23:42:41.229Z,9.60
2022-09-29T23:45:11.115Z,12.33
2022-09-29T23:47:39.168Z,9.97
2022-09-29T23:50:07.930Z,11.63
2022-09-29T23:52:36.106Z,10.80
2022-09-29T23:55:04.378Z,11.10
2022-09-29T23:57:32.472Z,11.53
